Time;durP1;ratioP1;P1;durP2;ratioP2;P2;SDS_P1;SDS_P2;PMS_P1;PMS_P2;Temp;Humidity;BMP_temperature;BMP_pressure;BME280_temperature;BME280_humidity;BME280_pressure;Samples;Min_cycle;Max_cycle;Signal;HPM_P1;HPM_P2
2020/10/08 00:00:30;;;;;;;3.9;2.25;;;;;;;9.37;100;95750.81;;;;
2020/10/08 00:01:31;;;;;;;3.9;2.25;;;;;;;9.37;100;95750.81;;;;
2020/10/08 00:02:32;;;;;;;3.9;2.25;;;;;;;9.37;100;95750.81;;;;
2020/10/08 00:03:32;;;;;;;3.9;2.25;;;;;;;9.37;100;95750.81;;;;
2020/10/08 00:04:33;;;;;;;3.9;2.25;;;;;;;9.37;100;95750.81;;;;
2020/10/08 00:05:37;;;;;;;3.45;2.6;;;;;;;9.35;100;95765.01;;;;
2020/10/08 00:06:37;;;;;;;3.45;2.6;;;;;;;9.35;100;95765.01;;;;
2020/10/08 00:07:38;;;;;;;3.45;2.6;;;;;;;9.35;100;95765.01;;;;
2020/10/08 00:08:38;;;;;;;3.45;2.6;;;;;;;9.35;100;95765.01;;;;
2020/10/08 00:09:39;;;;;;;3.45;2.6;;;;;;;9.35;100;95765.01;;;;
2020/10/08 00:10:39;;;;;;;3.45;2.6;;;;;;;9.35;100;95765.01;;;;
2020/10/08 00:11:40;;;;;;;3.45;2.6;;;;;;;9.35;100;95765.01;;;;
2020/10/08 00:12:40;;;;;;;3.45;2.6;;;;;;;9.35;100;95765.01;;;;
2020/10/08 00:13:41;;;;;;;3.45;2.6;;;;;;;9.35;100;95765.01;;;;
2020/10/08 00:14:41;;;;;;;3.45;2.6;;;;;;;9.35;100;95765.01;;;;
2020/10/08 00:15:42;;;;;;;3.45;2.6;;;;;;;9.35;100;95765.01;;;;
2020/10/08 00:16:42;;;;;;;3.1;2.2;;;;;;;9.35;100;95767.71;;;;
2020/10/08 00:17:43;;;;;;;3.1;2.2;;;;;;;9.35;100;95767.71;;;;
2020/10/08 00:18:43;;;;;;;3.1;2.2;;;;;;;9.35;100;95767.71;;;;
2020/10/08 00:19:44;;;;;;;3.1;2.2;;;;;;;9.35;100;95767.71;;;;
2020/10/08 00:20:44;;;;;;;3.1;2.2;;;;;;;9.35;100;95767.71;;;;
2020/10/08 00:21:45;;;;;;;3.1;2.2;;;;;;;9.35;100;95767.71;;;;
2020/10/08 00:22:45;;;;;;;3.1;2.2;;;;;;;9.35;100;95767.71;;;;
2020/10/08 00:23:46;;;;;;;3.1;2.2;;;;;;;9.35;100;95767.71;;;;
2020/10/08 00:24:47;;;;;;;3.1;2.2;;;;;;;9.35;100;95767.71;;;;
2020/10/08 00:25:47;;;;;;;3.1;2.2;;;;;;;9.35;100;95767.71;;;;
2020/10/08 00:26:48;;;;;;;3.85;2.1;;;;;;;9.38;100;95779.43;;;;
2020/10/08 00:27:49;;;;;;;3.85;2.1;;;;;;;9.38;100;95779.43;;;;
2020/10/08 00:28:49;;;;;;;3.85;2.1;;;;;;;9.38;100;95779.43;;;;
2020/10/08 00:29:50;;;;;;;3.85;2.1;;;;;;;9.38;100;95779.43;;;;
2020/10/08 00:30:50;;;;;;;3.85;2.1;;;;;;;9.38;100;95779.43;;;;
2020/10/08 00:31:51;;;;;;;3.85;2.1;;;;;;;9.38;100;95779.43;;;;
2020/10/08 00:32:51;;;;;;;3.85;2.1;;;;;;;9.38;100;95779.43;;;;
2020/10/08 00:33:52;;;;;;;3.85;2.1;;;;;;;9.38;100;95779.43;;;;
2020/10/08 00:34:52;;;;;;;3.85;2.1;;;;;;;9.38;100;95779.43;;;;
2020/10/08 00:35:53;;;;;;;3.85;2.1;;;;;;;9.38;100;95779.43;;;;
2020/10/08 00:36:53;;;;;;;3.85;2.1;;;;;;;9.38;100;95779.43;;;;
2020/10/08 00:37:54;;;;;;;3.65;2;;;;;;;9.32;100;95772.33;;;;
2020/10/08 00:38:54;;;;;;;3.65;2;;;;;;;9.32;100;95772.33;;;;
2020/10/08 00:39:55;;;;;;;3.65;2;;;;;;;9.32;100;95772.33;;;;
2020/10/08 00:40:55;;;;;;;3.65;2;;;;;;;9.32;100;95772.33;;;;
2020/10/08 00:41:56;;;;;;;3.65;2;;;;;;;9.32;100;95772.33;;;;
2020/10/08 00:42:56;;;;;;;3.65;2;;;;;;;9.32;100;95772.33;;;;
2020/10/08 00:43:57;;;;;;;3.65;2;;;;;;;9.32;100;95772.33;;;;
2020/10/08 00:44:57;;;;;;;3.65;2;;;;;;;9.32;100;95772.33;;;;
2020/10/08 00:45:58;;;;;;;3.65;2;;;;;;;9.32;100;95772.33;;;;
2020/10/08 00:46:58;;;;;;;3.65;2;;;;;;;9.32;100;95772.33;;;;
2020/10/08 00:47:59;;;;;;;4.3;2.1;;;;;;;9.38;100;95760.66;;;;
2020/10/08 00:48:59;;;;;;;4.3;2.1;;;;;;;9.38;100;95760.66;;;;
2020/10/08 00:50:00;;;;;;;4.3;2.1;;;;;;;9.38;100;95760.66;;;;
2020/10/08 00:51:01;;;;;;;4.3;2.1;;;;;;;9.38;100;95760.66;;;;
2020/10/08 00:52:02;;;;;;;4.3;2.1;;;;;;;9.38;100;95760.66;;;;
2020/10/08 00:53:03;;;;;;;4.3;2.1;;;;;;;9.38;100;95760.66;;;;
2020/10/08 00:54:03;;;;;;;4.3;2.1;;;;;;;9.38;100;95760.66;;;;
2020/10/08 00:55:04;;;;;;;4.3;2.1;;;;;;;9.38;100;95760.66;;;;
2020/10/08 00:56:04;;;;;;;4.3;2.1;;;;;;;9.38;100;95760.66;;;;
2020/10/08 00:57:06;;;;;;;4.3;2.1;;;;;;;9.38;100;95760.66;;;;
2020/10/08 00:58:06;;;;;;;4.3;2.1;;;;;;;9.38;100;95760.66;;;;
2020/10/08 00:59:07;;;;;;;4;2.15;;;;;;;9.36;100;95777.47;;;;
2020/10/08 01:00:08;;;;;;;4;2.15;;;;;;;9.36;100;95777.47;;;;
2020/10/08 01:01:09;;;;;;;4;2.15;;;;;;;9.36;100;95777.47;;;;
2020/10/08 01:02:09;;;;;;;4;2.15;;;;;;;9.36;100;95777.47;;;;
2020/10/08 01:03:10;;;;;;;4;2.15;;;;;;;9.36;100;95777.47;;;;
2020/10/08 01:04:11;;;;;;;4;2.15;;;;;;;9.36;100;95777.47;;;;
2020/10/08 01:05:11;;;;;;;4;2.15;;;;;;;9.36;100;95777.47;;;;
2020/10/08 01:06:12;;;;;;;4;2.15;;;;;;;9.36;100;95777.47;;;;
2020/10/08 01:07:13;;;;;;;4;2.15;;;;;;;9.36;100;95777.47;;;;
2020/10/08 01:08:14;;;;;;;4;2.15;;;;;;;9.36;100;95777.47;;;;
2020/10/08 01:09:14;;;;;;;4.150001;1.85;;;;;;;9.43;100;95778.25;;;;
2020/10/08 01:10:20;;;;;;;4.150001;1.85;;;;;;;9.43;100;95778.25;;;;
2020/10/08 01:11:21;;;;;;;4.150001;1.85;;;;;;;9.43;100;95778.25;;;;
2020/10/08 01:12:21;;;;;;;4.150001;1.85;;;;;;;9.43;100;95778.25;;;;
2020/10/08 01:13:22;;;;;;;4.150001;1.85;;;;;;;9.43;100;95778.25;;;;
2020/10/08 01:14:22;;;;;;;4.150001;1.85;;;;;;;9.43;100;95778.25;;;;
2020/10/08 01:15:23;;;;;;;4.150001;1.85;;;;;;;9.43;100;95778.25;;;;
2020/10/08 01:16:23;;;;;;;4.150001;1.85;;;;;;;9.43;100;95778.25;;;;
2020/10/08 01:17:24;;;;;;;4.150001;1.85;;;;;;;9.43;100;95778.25;;;;
2020/10/08 01:18:24;;;;;;;4.150001;1.85;;;;;;;9.43;100;95778.25;;;;
2020/10/08 01:19:25;;;;;;;4.150001;1.85;;;;;;;9.43;100;95778.25;;;;
2020/10/08 01:20:26;;;;;;;4.05;2.1;;;;;;;9.44;100;95785.41;;;;
2020/10/08 01:21:27;;;;;;;4.05;2.1;;;;;;;9.44;100;95785.41;;;;
2020/10/08 01:22:28;;;;;;;4.05;2.1;;;;;;;9.44;100;95785.41;;;;
2020/10/08 01:23:28;;;;;;;4.05;2.1;;;;;;;9.44;100;95785.41;;;;
2020/10/08 01:24:29;;;;;;;4.05;2.1;;;;;;;9.44;100;95785.41;;;;
2020/10/08 01:25:29;;;;;;;4.05;2.1;;;;;;;9.44;100;95785.41;;;;
2020/10/08 01:26:30;;;;;;;4.05;2.1;;;;;;;9.44;100;95785.41;;;;
2020/10/08 01:27:30;;;;;;;4.05;2.1;;;;;;;9.44;100;95785.41;;;;
2020/10/08 01:28:31;;;;;;;4.05;2.1;;;;;;;9.44;100;95785.41;;;;
2020/10/08 01:29:34;;;;;;;4.05;2.1;;;;;;;9.44;100;95785.41;;;;
2020/10/08 01:30:34;;;;;;;4.5;1.7;;;;;;;9.48;100;95785.16;;;;
2020/10/08 01:31:35;;;;;;;4.5;1.7;;;;;;;9.48;100;95785.16;;;;
2020/10/08 01:32:35;;;;;;;4.5;1.7;;;;;;;9.48;100;95785.16;;;;
2020/10/08 01:33:36;;;;;;;4.5;1.7;;;;;;;9.48;100;95785.16;;;;
2020/10/08 01:34:36;;;;;;;4.5;1.7;;;;;;;9.48;100;95785.16;;;;
2020/10/08 01:35:37;;;;;;;4.5;1.7;;;;;;;9.48;100;95785.16;;;;
2020/10/08 01:36:38;;;;;;;4.5;1.7;;;;;;;9.48;100;95785.16;;;;
2020/10/08 01:37:42;;;;;;;4.5;1.7;;;;;;;9.48;100;95785.16;;;;
2020/10/08 01:38:42;;;;;;;4.5;1.7;;;;;;;9.48;100;95785.16;;;;
2020/10/08 01:39:43;;;;;;;4.5;1.7;;;;;;;9.48;100;95785.16;;;;
2020/10/08 01:40:43;;;;;;;4.5;1.7;;;;;;;9.48;100;95785.16;;;;
2020/10/08 01:41:44;;;;;;;3.250001;1.7;;;;;;;9.47;100;95782.26;;;;
2020/10/08 01:42:45;;;;;;;3.250001;1.7;;;;;;;9.47;100;95782.26;;;;
2020/10/08 01:43:46;;;;;;;3.250001;1.7;;;;;;;9.47;100;95782.26;;;;
2020/10/08 01:44:46;;;;;;;3.250001;1.7;;;;;;;9.47;100;95782.26;;;;
2020/10/08 01:45:46;;;;;;;3.250001;1.7;;;;;;;9.47;100;95782.26;;;;
2020/10/08 01:46:47;;;;;;;3.250001;1.7;;;;;;;9.47;100;95782.26;;;;
2020/10/08 01:47:48;;;;;;;3.250001;1.7;;;;;;;9.47;100;95782.26;;;;
2020/10/08 01:48:49;;;;;;;3.250001;1.7;;;;;;;9.47;100;95782.26;;;;
2020/10/08 01:49:49;;;;;;;3.250001;1.7;;;;;;;9.47;100;95782.26;;;;
2020/10/08 01:50:50;;;;;;;3.250001;1.7;;;;;;;9.47;100;95782.26;;;;
2020/10/08 01:51:50;;;;;;;3.250001;1.7;;;;;;;9.47;100;95782.26;;;;
2020/10/08 01:52:51;;;;;;;4.4;1.9;;;;;;;9.43;100;95789.12;;;;
2020/10/08 01:53:51;;;;;;;4.4;1.9;;;;;;;9.43;100;95789.12;;;;
2020/10/08 01:54:53;;;;;;;4.4;1.9;;;;;;;9.43;100;95789.12;;;;
2020/10/08 01:55:54;;;;;;;4.4;1.9;;;;;;;9.43;100;95789.12;;;;
2020/10/08 01:56:54;;;;;;;4.4;1.9;;;;;;;9.43;100;95789.12;;;;
2020/10/08 01:57:55;;;;;;;4.4;1.9;;;;;;;9.43;100;95789.12;;;;
2020/10/08 01:58:55;;;;;;;4.4;1.9;;;;;;;9.43;100;95789.12;;;;
2020/10/08 01:59:56;;;;;;;4.4;1.9;;;;;;;9.43;100;95789.12;;;;
2020/10/08 02:00:56;;;;;;;4.4;1.9;;;;;;;9.43;100;95789.12;;;;
2020/10/08 02:01:57;;;;;;;4.4;1.9;;;;;;;9.43;100;95789.12;;;;
2020/10/08 02:02:58;;;;;;;2.8;1.9;;;;;;;9.39;100;95783.89;;;;
2020/10/08 02:03:58;;;;;;;2.8;1.9;;;;;;;9.39;100;95783.89;;;;
2020/10/08 02:04:59;;;;;;;2.8;1.9;;;;;;;9.39;100;95783.89;;;;
2020/10/08 02:05:59;;;;;;;2.8;1.9;;;;;;;9.39;100;95783.89;;;;
2020/10/08 02:07:00;;;;;;;2.8;1.9;;;;;;;9.39;100;95783.89;;;;
2020/10/08 02:08:00;;;;;;;2.8;1.9;;;;;;;9.39;100;95783.89;;;;
2020/10/08 02:09:01;;;;;;;2.8;1.9;;;;;;;9.39;100;95783.89;;;;
2020/10/08 02:10:01;;;;;;;2.8;1.9;;;;;;;9.39;100;95783.89;;;;
2020/10/08 02:11:04;;;;;;;2.8;1.9;;;;;;;9.39;100;95783.89;;;;
2020/10/08 02:12:08;;;;;;;2.8;1.9;;;;;;;9.39;100;95783.89;;;;
2020/10/08 02:13:08;;;;;;;2.8;1.9;;;;;;;9.39;100;95783.89;;;;
2020/10/08 02:14:18;;;;;;;3.95;1.85;;;;;;;9.42;100;95780.75;;;;
2020/10/08 02:15:18;;;;;;;3.95;1.85;;;;;;;9.42;100;95780.75;;;;
2020/10/08 02:16:19;;;;;;;3.95;1.85;;;;;;;9.42;100;95780.75;;;;
2020/10/08 02:17:20;;;;;;;3.95;1.85;;;;;;;9.42;100;95780.75;;;;
2020/10/08 02:18:20;;;;;;;3.95;1.85;;;;;;;9.42;100;95780.75;;;;
2020/10/08 02:19:21;;;;;;;3.95;1.85;;;;;;;9.42;100;95780.75;;;;
2020/10/08 02:20:21;;;;;;;3.95;1.85;;;;;;;9.42;100;95780.75;;;;
2020/10/08 02:21:23;;;;;;;3.95;1.85;;;;;;;9.42;100;95780.75;;;;
2020/10/08 02:22:24;;;;;;;3.95;1.85;;;;;;;9.42;100;95780.75;;;;
2020/10/08 02:23:24;;;;;;;3.95;1.85;;;;;;;9.42;100;95780.75;;;;
2020/10/08 02:24:25;;;;;;;2.75;1.8;;;;;;;9.4;100;95781.48;;;;
2020/10/08 02:25:25;;;;;;;2.75;1.8;;;;;;;9.4;100;95781.48;;;;
2020/10/08 02:26:26;;;;;;;2.75;1.8;;;;;;;9.4;100;95781.48;;;;
2020/10/08 02:27:26;;;;;;;2.75;1.8;;;;;;;9.4;100;95781.48;;;;
2020/10/08 02:28:27;;;;;;;2.75;1.8;;;;;;;9.4;100;95781.48;;;;
2020/10/08 02:29:27;;;;;;;2.75;1.8;;;;;;;9.4;100;95781.48;;;;
2020/10/08 02:30:28;;;;;;;2.75;1.8;;;;;;;9.4;100;95781.48;;;;
2020/10/08 02:31:28;;;;;;;2.75;1.8;;;;;;;9.4;100;95781.48;;;;
2020/10/08 02:32:29;;;;;;;2.75;1.8;;;;;;;9.4;100;95781.48;;;;
2020/10/08 02:33:29;;;;;;;2.75;1.8;;;;;;;9.4;100;95781.48;;;;
2020/10/08 02:34:30;;;;;;;2.75;1.8;;;;;;;9.4;100;95781.48;;;;
2020/10/08 02:35:30;;;;;;;4.7;1.8;;;;;;;9.41;100;95794.32;;;;
2020/10/08 02:36:31;;;;;;;4.7;1.8;;;;;;;9.41;100;95794.32;;;;
2020/10/08 02:37:33;;;;;;;4.7;1.8;;;;;;;9.41;100;95794.32;;;;
2020/10/08 02:38:34;;;;;;;4.7;1.8;;;;;;;9.41;100;95794.32;;;;
2020/10/08 02:39:35;;;;;;;4.7;1.8;;;;;;;9.41;100;95794.32;;;;
2020/10/08 02:40:35;;;;;;;4.7;1.8;;;;;;;9.41;100;95794.32;;;;
2020/10/08 02:41:36;;;;;;;4.7;1.8;;;;;;;9.41;100;95794.32;;;;
2020/10/08 02:42:36;;;;;;;4.7;1.8;;;;;;;9.41;100;95794.32;;;;
2020/10/08 02:43:37;;;;;;;4.7;1.8;;;;;;;9.41;100;95794.32;;;;
2020/10/08 02:44:37;;;;;;;4.7;1.8;;;;;;;9.41;100;95794.32;;;;
2020/10/08 02:45:38;;;;;;;3.45;1.95;;;;;;;9.28;100;95792.11;;;;
2020/10/08 02:46:39;;;;;;;3.45;1.95;;;;;;;9.28;100;95792.11;;;;
2020/10/08 02:47:39;;;;;;;3.45;1.95;;;;;;;9.28;100;95792.11;;;;
2020/10/08 02:48:40;;;;;;;3.45;1.95;;;;;;;9.28;100;95792.11;;;;
2020/10/08 02:49:41;;;;;;;3.45;1.95;;;;;;;9.28;100;95792.11;;;;
2020/10/08 02:50:41;;;;;;;3.45;1.95;;;;;;;9.28;100;95792.11;;;;
2020/10/08 02:51:42;;;;;;;3.45;1.95;;;;;;;9.28;100;95792.11;;;;
2020/10/08 02:52:42;;;;;;;3.45;1.95;;;;;;;9.28;100;95792.11;;;;
2020/10/08 02:53:43;;;;;;;3.45;1.95;;;;;;;9.28;100;95792.11;;;;
2020/10/08 02:54:44;;;;;;;3.45;1.95;;;;;;;9.28;100;95792.11;;;;
2020/10/08 02:55:44;;;;;;;3.45;1.95;;;;;;;9.28;100;95792.11;;;;
2020/10/08 02:56:45;;;;;;;4.349999;1.8;;;;;;;9.2;100;95791.53;;;;
2020/10/08 02:57:45;;;;;;;4.349999;1.8;;;;;;;9.2;100;95791.53;;;;
2020/10/08 02:58:46;;;;;;;4.349999;1.8;;;;;;;9.2;100;95791.53;;;;
2020/10/08 02:59:47;;;;;;;4.349999;1.8;;;;;;;9.2;100;95791.53;;;;
2020/10/08 03:00:48;;;;;;;4.349999;1.8;;;;;;;9.2;100;95791.53;;;;
2020/10/08 03:01:48;;;;;;;4.349999;1.8;;;;;;;9.2;100;95791.53;;;;
2020/10/08 03:02:49;;;;;;;4.349999;1.8;;;;;;;9.2;100;95791.53;;;;
2020/10/08 03:03:50;;;;;;;4.349999;1.8;;;;;;;9.2;100;95791.53;;;;
2020/10/08 03:04:50;;;;;;;4.349999;1.8;;;;;;;9.2;100;95791.53;;;;
2020/10/08 03:05:51;;;;;;;4.349999;1.8;;;;;;;9.2;100;95791.53;;;;
2020/10/08 03:06:52;;;;;;;5.7;1.9;;;;;;;9.1;100;95807.76;;;;
2020/10/08 03:07:52;;;;;;;5.7;1.9;;;;;;;9.1;100;95807.76;;;;
2020/10/08 03:08:53;;;;;;;5.7;1.9;;;;;;;9.1;100;95807.76;;;;
2020/10/08 03:09:54;;;;;;;5.7;1.9;;;;;;;9.1;100;95807.76;;;;
2020/10/08 03:10:54;;;;;;;5.7;1.9;;;;;;;9.1;100;95807.76;;;;
2020/10/08 03:11:55;;;;;;;5.7;1.9;;;;;;;9.1;100;95807.76;;;;
2020/10/08 03:12:55;;;;;;;5.7;1.9;;;;;;;9.1;100;95807.76;;;;
2020/10/08 03:13:56;;;;;;;5.7;1.9;;;;;;;9.1;100;95807.76;;;;
2020/10/08 03:14:56;;;;;;;5.7;1.9;;;;;;;9.1;100;95807.76;;;;
2020/10/08 03:15:57;;;;;;;5.7;1.9;;;;;;;9.1;100;95807.76;;;;
2020/10/08 03:16:57;;;;;;;5.7;1.9;;;;;;;9.1;100;95807.76;;;;
2020/10/08 03:17:59;;;;;;;4.1;2;;;;;;;9.17;100;95819.34;;;;
2020/10/08 03:19:00;;;;;;;4.1;2;;;;;;;9.17;100;95819.34;;;;
2020/10/08 03:20:00;;;;;;;4.1;2;;;;;;;9.17;100;95819.34;;;;
2020/10/08 03:21:02;;;;;;;4.1;2;;;;;;;9.17;100;95819.34;;;;
2020/10/08 03:22:02;;;;;;;4.1;2;;;;;;;9.17;100;95819.34;;;;
2020/10/08 03:23:03;;;;;;;4.1;2;;;;;;;9.17;100;95819.34;;;;
2020/10/08 03:24:04;;;;;;;4.1;2;;;;;;;9.17;100;95819.34;;;;
2020/10/08 03:25:04;;;;;;;4.1;2;;;;;;;9.17;100;95819.34;;;;
2020/10/08 03:26:06;;;;;;;4.1;2;;;;;;;9.17;100;95819.34;;;;
2020/10/08 03:27:07;;;;;;;4.1;2;;;;;;;9.17;100;95819.34;;;;
2020/10/08 03:28:07;;;;;;;3.6;1.7;;;;;;;9.19;100;95811.45;;;;
2020/10/08 03:29:08;;;;;;;3.6;1.7;;;;;;;9.19;100;95811.45;;;;
2020/10/08 03:30:08;;;;;;;3.6;1.7;;;;;;;9.19;100;95811.45;;;;
2020/10/08 03:31:09;;;;;;;3.6;1.7;;;;;;;9.19;100;95811.45;;;;
2020/10/08 03:32:10;;;;;;;3.6;1.7;;;;;;;9.19;100;95811.45;;;;
2020/10/08 03:33:10;;;;;;;3.6;1.7;;;;;;;9.19;100;95811.45;;;;
2020/10/08 03:34:10;;;;;;;3.6;1.7;;;;;;;9.19;100;95811.45;;;;
2020/10/08 03:35:11;;;;;;;3.6;1.7;;;;;;;9.19;100;95811.45;;;;
2020/10/08 03:36:12;;;;;;;3.6;1.7;;;;;;;9.19;100;95811.45;;;;
2020/10/08 03:37:12;;;;;;;3.6;1.7;;;;;;;9.19;100;95811.45;;;;
2020/10/08 03:38:13;;;;;;;3.6;1.7;;;;;;;9.19;100;95811.45;;;;
2020/10/08 03:39:13;;;;;;;2.6;1.9;;;;;;;9.25;100;95817.72;;;;
2020/10/08 03:40:14;;;;;;;2.6;1.9;;;;;;;9.25;100;95817.72;;;;
2020/10/08 03:41:14;;;;;;;2.6;1.9;;;;;;;9.25;100;95817.72;;;;
2020/10/08 03:42:15;;;;;;;2.6;1.9;;;;;;;9.25;100;95817.72;;;;
2020/10/08 03:43:15;;;;;;;2.6;1.9;;;;;;;9.25;100;95817.72;;;;
2020/10/08 03:44:16;;;;;;;2.6;1.9;;;;;;;9.25;100;95817.72;;;;
2020/10/08 03:45:16;;;;;;;2.6;1.9;;;;;;;9.25;100;95817.72;;;;
2020/10/08 03:46:18;;;;;;;2.6;1.9;;;;;;;9.25;100;95817.72;;;;
2020/10/08 03:47:20;;;;;;;2.6;1.9;;;;;;;9.25;100;95817.72;;;;
2020/10/08 03:48:20;;;;;;;2.6;1.9;;;;;;;9.25;100;95817.72;;;;
2020/10/08 03:49:21;;;;;;;4.750001;1.85;;;;;;;9.26;100;95825.72;;;;
2020/10/08 03:50:21;;;;;;;4.750001;1.85;;;;;;;9.26;100;95825.72;;;;
2020/10/08 03:51:22;;;;;;;4.750001;1.85;;;;;;;9.26;100;95825.72;;;;
2020/10/08 03:52:23;;;;;;;4.750001;1.85;;;;;;;9.26;100;95825.72;;;;
2020/10/08 03:53:24;;;;;;;4.750001;1.85;;;;;;;9.26;100;95825.72;;;;
2020/10/08 03:54:24;;;;;;;4.750001;1.85;;;;;;;9.26;100;95825.72;;;;
2020/10/08 03:55:26;;;;;;;4.750001;1.85;;;;;;;9.26;100;95825.72;;;;
2020/10/08 03:56:27;;;;;;;4.750001;1.85;;;;;;;9.26;100;95825.72;;;;
2020/10/08 03:57:37;;;;;;;4.750001;1.85;;;;;;;9.26;100;95825.72;;;;
2020/10/08 03:58:38;;;;;;;4.750001;1.85;;;;;;;9.26;100;95825.72;;;;
2020/10/08 03:59:38;;;;;;;4.750001;1.85;;;;;;;9.26;100;95825.72;;;;
2020/10/08 04:00:39;;;;;;;4.05;1.85;;;;;;;9.22;100;95824.49;;;;
2020/10/08 04:01:39;;;;;;;4.05;1.85;;;;;;;9.22;100;95824.49;;;;
2020/10/08 04:02:40;;;;;;;4.05;1.85;;;;;;;9.22;100;95824.49;;;;
2020/10/08 04:03:42;;;;;;;4.05;1.85;;;;;;;9.22;100;95824.49;;;;
2020/10/08 04:04:48;;;;;;;4.05;1.85;;;;;;;9.22;100;95824.49;;;;
2020/10/08 04:05:57;;;;;;;4.05;1.85;;;;;;;9.22;100;95824.49;;;;
2020/10/08 04:06:57;;;;;;;4.05;1.85;;;;;;;9.22;100;95824.49;;;;
2020/10/08 04:08:00;;;;;;;4.05;1.85;;;;;;;9.22;100;95824.49;;;;
2020/10/08 04:09:01;;;;;;;4.05;1.85;;;;;;;9.22;100;95824.49;;;;
2020/10/08 04:10:22;;;;;;;4.05;1.85;;;;;;;9.22;100;95824.49;;;;
2020/10/08 04:11:23;;;;;;;2.1;1.9;;;;;;;8.98;100;95817.14;;;;
2020/10/08 04:12:24;;;;;;;2.1;1.9;;;;;;;8.98;100;95817.14;;;;
2020/10/08 04:13:29;;;;;;;2.1;1.9;;;;;;;8.98;100;95817.14;;;;
2020/10/08 04:14:30;;;;;;;2.1;1.9;;;;;;;8.98;100;95817.14;;;;
2020/10/08 04:15:31;;;;;;;2.1;1.9;;;;;;;8.98;100;95817.14;;;;
2020/10/08 04:16:32;;;;;;;2.1;1.9;;;;;;;8.98;100;95817.14;;;;
2020/10/08 04:17:33;;;;;;;2.1;1.9;;;;;;;8.98;100;95817.14;;;;
2020/10/08 04:18:38;;;;;;;2.1;1.9;;;;;;;8.98;100;95817.14;;;;
2020/10/08 04:19:39;;;;;;;2.1;1.9;;;;;;;8.98;100;95817.14;;;;
2020/10/08 04:20:41;;;;;;;2.1;1.9;;;;;;;8.98;100;95817.14;;;;
2020/10/08 04:21:58;;;;;;;3.95;2.05;;;;;;;8.87;100;95824.95;;;;
2020/10/08 04:23:01;;;;;;;3.95;2.05;;;;;;;8.87;100;95824.95;;;;
2020/10/08 04:24:02;;;;;;;3.95;2.05;;;;;;;8.87;100;95824.95;;;;
2020/10/08 04:25:02;;;;;;;3.95;2.05;;;;;;;8.87;100;95824.95;;;;
2020/10/08 04:26:05;;;;;;;3.95;2.05;;;;;;;8.87;100;95824.95;;;;
2020/10/08 04:27:06;;;;;;;3.95;2.05;;;;;;;8.87;100;95824.95;;;;
2020/10/08 04:28:08;;;;;;;3.95;2.05;;;;;;;8.87;100;95824.95;;;;
2020/10/08 04:29:10;;;;;;;3.95;2.05;;;;;;;8.87;100;95824.95;;;;
2020/10/08 04:30:11;;;;;;;3.95;2.05;;;;;;;8.87;100;95824.95;;;;
2020/10/08 04:31:13;;;;;;;3.95;2.05;;;;;;;8.87;100;95824.95;;;;
2020/10/08 04:32:15;;;;;;;4.349999;2.2;;;;;;;8.8;100;95823.19;;;;
2020/10/08 04:33:15;;;;;;;4.349999;2.2;;;;;;;8.8;100;95823.19;;;;
2020/10/08 04:34:16;;;;;;;4.349999;2.2;;;;;;;8.8;100;95823.19;;;;
2020/10/08 04:35:17;;;;;;;4.349999;2.2;;;;;;;8.8;100;95823.19;;;;
2020/10/08 04:36:17;;;;;;;4.349999;2.2;;;;;;;8.8;100;95823.19;;;;
2020/10/08 04:37:19;;;;;;;4.349999;2.2;;;;;;;8.8;100;95823.19;;;;
2020/10/08 04:38:21;;;;;;;4.349999;2.2;;;;;;;8.8;100;95823.19;;;;
2020/10/08 04:39:25;;;;;;;4.349999;2.2;;;;;;;8.8;100;95823.19;;;;
2020/10/08 04:40:26;;;;;;;4.349999;2.2;;;;;;;8.8;100;95823.19;;;;
2020/10/08 04:41:27;;;;;;;4.349999;2.2;;;;;;;8.8;100;95823.19;;;;
2020/10/08 04:42:28;;;;;;;4.349999;2.2;;;;;;;8.8;100;95823.19;;;;
2020/10/08 04:43:29;;;;;;;3.65;2;;;;;;;8.76;100;95823.32;;;;
2020/10/08 04:44:31;;;;;;;3.65;2;;;;;;;8.76;100;95823.32;;;;
2020/10/08 04:45:33;;;;;;;3.65;2;;;;;;;8.76;100;95823.32;;;;
2020/10/08 04:46:33;;;;;;;3.65;2;;;;;;;8.76;100;95823.32;;;;
2020/10/08 04:47:34;;;;;;;3.65;2;;;;;;;8.76;100;95823.32;;;;
2020/10/08 04:48:36;;;;;;;3.65;2;;;;;;;8.76;100;95823.32;;;;
2020/10/08 04:50:50;;;;;;;3.65;2;;;;;;;8.76;100;95823.32;;;;
2020/10/08 04:51:51;;;;;;;3.65;2;;;;;;;8.76;100;95823.32;;;;
2020/10/08 04:52:59;;;;;;;3.65;2;;;;;;;8.76;100;95823.32;;;;
2020/10/08 04:54:01;;;;;;;4.55;2.15;;;;;;;8.65;100;95831.62;;;;
2020/10/08 04:55:04;;;;;;;4.55;2.15;;;;;;;8.65;100;95831.62;;;;
2020/10/08 04:56:06;;;;;;;4.55;2.15;;;;;;;8.65;100;95831.62;;;;
2020/10/08 04:57:07;;;;;;;4.55;2.15;;;;;;;8.65;100;95831.62;;;;
2020/10/08 04:58:07;;;;;;;4.55;2.15;;;;;;;8.65;100;95831.62;;;;
2020/10/08 04:59:10;;;;;;;4.55;2.15;;;;;;;8.65;100;95831.62;;;;
2020/10/08 05:00:17;;;;;;;4.55;2.15;;;;;;;8.65;100;95831.62;;;;
2020/10/08 05:01:17;;;;;;;4.55;2.15;;;;;;;8.65;100;95831.62;;;;
2020/10/08 05:02:21;;;;;;;4.55;2.15;;;;;;;8.65;100;95831.62;;;;
2020/10/08 05:03:21;;;;;;;4.55;2.15;;;;;;;8.65;100;95831.62;;;;
2020/10/08 05:04:29;;;;;;;2.95;2;;;;;;;8.72;100;95844.45;;;;
2020/10/08 05:05:46;;;;;;;2.95;2;;;;;;;8.72;100;95844.45;;;;
2020/10/08 05:06:59;;;;;;;2.95;2;;;;;;;8.72;100;95844.45;;;;
2020/10/08 05:08:16;;;;;;;2.95;2;;;;;;;8.72;100;95844.45;;;;
2020/10/08 05:09:32;;;;;;;2.95;2;;;;;;;8.72;100;95844.45;;;;
2020/10/08 05:10:36;;;;;;;2.95;2;;;;;;;8.72;100;95844.45;;;;
2020/10/08 05:11:38;;;;;;;2.95;2;;;;;;;8.72;100;95844.45;;;;
2020/10/08 05:12:38;;;;;;;2.95;2;;;;;;;8.72;100;95844.45;;;;
2020/10/08 05:13:39;;;;;;;2.95;2;;;;;;;8.72;100;95844.45;;;;
2020/10/08 05:14:39;;;;;;;3.65;2.4;;;;;;;8.74;100;95838.86;;;;
2020/10/08 05:15:40;;;;;;;3.65;2.4;;;;;;;8.74;100;95838.86;;;;
2020/10/08 05:16:43;;;;;;;3.65;2.4;;;;;;;8.74;100;95838.86;;;;
2020/10/08 05:17:58;;;;;;;3.65;2.4;;;;;;;8.74;100;95838.86;;;;
2020/10/08 05:18:59;;;;;;;3.65;2.4;;;;;;;8.74;100;95838.86;;;;
2020/10/08 05:20:00;;;;;;;3.65;2.4;;;;;;;8.74;100;95838.86;;;;
2020/10/08 05:21:00;;;;;;;3.65;2.4;;;;;;;8.74;100;95838.86;;;;
2020/10/08 05:22:01;;;;;;;3.65;2.4;;;;;;;8.74;100;95838.86;;;;
2020/10/08 05:23:02;;;;;;;3.65;2.4;;;;;;;8.74;100;95838.86;;;;
2020/10/08 05:24:03;;;;;;;3.65;2.4;;;;;;;8.74;100;95838.86;;;;
2020/10/08 05:25:10;;;;;;;3.65;2.4;;;;;;;8.74;100;95838.86;;;;
2020/10/08 05:26:11;;;;;;;3.7;1.7;;;;;;;8.65;100;95839.18;;;;
2020/10/08 05:27:13;;;;;;;3.7;1.7;;;;;;;8.65;100;95839.18;;;;
2020/10/08 05:28:14;;;;;;;3.7;1.7;;;;;;;8.65;100;95839.18;;;;
2020/10/08 05:29:35;;;;;;;3.7;1.7;;;;;;;8.65;100;95839.18;;;;
2020/10/08 05:30:56;;;;;;;3.7;1.7;;;;;;;8.65;100;95839.18;;;;
2020/10/08 05:31:57;;;;;;;3.7;1.7;;;;;;;8.65;100;95839.18;;;;
2020/10/08 05:33:18;;;;;;;3.7;1.7;;;;;;;8.65;100;95839.18;;;;
2020/10/08 05:34:21;;;;;;;3.7;1.7;;;;;;;8.65;100;95839.18;;;;
2020/10/08 05:35:23;;;;;;;3.7;1.7;;;;;;;8.65;100;95839.18;;;;
2020/10/08 05:36:26;;;;;;;2.4;2;;;;;;;8.56;100;95843.65;;;;
2020/10/08 05:37:27;;;;;;;2.4;2;;;;;;;8.56;100;95843.65;;;;
2020/10/08 05:38:35;;;;;;;2.4;2;;;;;;;8.56;100;95843.65;;;;
2020/10/08 05:39:36;;;;;;;2.4;2;;;;;;;8.56;100;95843.65;;;;
2020/10/08 05:40:37;;;;;;;2.4;2;;;;;;;8.56;100;95843.65;;;;
2020/10/08 05:41:37;;;;;;;2.4;2;;;;;;;8.56;100;95843.65;;;;
2020/10/08 05:42:38;;;;;;;2.4;2;;;;;;;8.56;100;95843.65;;;;
2020/10/08 05:43:38;;;;;;;2.4;2;;;;;;;8.56;100;95843.65;;;;
2020/10/08 05:44:40;;;;;;;2.4;2;;;;;;;8.56;100;95843.65;;;;
2020/10/08 05:45:52;;;;;;;2.4;2;;;;;;;8.56;100;95843.65;;;;
2020/10/08 05:46:54;;;;;;;4;2.1;;;;;;;8.72;100;95845.79;;;;
2020/10/08 05:47:59;;;;;;;4;2.1;;;;;;;8.72;100;95845.79;;;;
2020/10/08 05:49:00;;;;;;;4;2.1;;;;;;;8.72;100;95845.79;;;;
2020/10/08 05:50:00;;;;;;;4;2.1;;;;;;;8.72;100;95845.79;;;;
2020/10/08 05:51:07;;;;;;;4;2.1;;;;;;;8.72;100;95845.79;;;;
2020/10/08 05:52:15;;;;;;;4;2.1;;;;;;;8.72;100;95845.79;;;;
2020/10/08 05:53:20;;;;;;;4;2.1;;;;;;;8.72;100;95845.79;;;;
2020/10/08 05:54:22;;;;;;;4;2.1;;;;;;;8.72;100;95845.79;;;;
2020/10/08 05:55:22;;;;;;;4;2.1;;;;;;;8.72;100;95845.79;;;;
2020/10/08 05:56:23;;;;;;;4;2.1;;;;;;;8.72;100;95845.79;;;;
2020/10/08 05:57:24;;;;;;;3.55;1.9;;;;;;;8.86;100;95848.77;;;;
2020/10/08 05:58:25;;;;;;;3.55;1.9;;;;;;;8.86;100;95848.77;;;;
2020/10/08 05:59:26;;;;;;;3.55;1.9;;;;;;;8.86;100;95848.77;;;;
2020/10/08 06:00:27;;;;;;;3.55;1.9;;;;;;;8.86;100;95848.77;;;;
2020/10/08 06:01:27;;;;;;;3.55;1.9;;;;;;;8.86;100;95848.77;;;;
2020/10/08 06:02:28;;;;;;;3.55;1.9;;;;;;;8.86;100;95848.77;;;;
2020/10/08 06:03:28;;;;;;;3.55;1.9;;;;;;;8.86;100;95848.77;;;;
2020/10/08 06:04:29;;;;;;;3.55;1.9;;;;;;;8.86;100;95848.77;;;;
2020/10/08 06:05:30;;;;;;;3.55;1.9;;;;;;;8.86;100;95848.77;;;;
2020/10/08 06:06:30;;;;;;;3.55;1.9;;;;;;;8.86;100;95848.77;;;;
2020/10/08 06:07:31;;;;;;;3.55;1.9;;;;;;;8.86;100;95848.77;;;;
2020/10/08 06:08:32;;;;;;;2.85;1.9;;;;;;;9.09;100;95844.64;;;;
2020/10/08 06:09:32;;;;;;;2.85;1.9;;;;;;;9.09;100;95844.64;;;;
2020/10/08 06:10:38;;;;;;;2.85;1.9;;;;;;;9.09;100;95844.64;;;;
2020/10/08 06:11:41;;;;;;;2.85;1.9;;;;;;;9.09;100;95844.64;;;;
2020/10/08 06:12:42;;;;;;;2.85;1.9;;;;;;;9.09;100;95844.64;;;;
2020/10/08 06:13:42;;;;;;;2.85;1.9;;;;;;;9.09;100;95844.64;;;;
2020/10/08 06:14:44;;;;;;;2.85;1.9;;;;;;;9.09;100;95844.64;;;;
2020/10/08 06:15:44;;;;;;;2.85;1.9;;;;;;;9.09;100;95844.64;;;;
2020/10/08 06:16:47;;;;;;;2.85;1.9;;;;;;;9.09;100;95844.64;;;;
2020/10/08 06:17:51;;;;;;;2.85;1.9;;;;;;;9.09;100;95844.64;;;;
2020/10/08 06:18:53;;;;;;;5.25;2;;;;;;;9.3;100;95841.77;;;;
2020/10/08 06:19:54;;;;;;;5.25;2;;;;;;;9.3;100;95841.77;;;;
2020/10/08 06:20:54;;;;;;;5.25;2;;;;;;;9.3;100;95841.77;;;;
2020/10/08 06:21:56;;;;;;;5.25;2;;;;;;;9.3;100;95841.77;;;;
2020/10/08 06:22:57;;;;;;;5.25;2;;;;;;;9.3;100;95841.77;;;;
2020/10/08 06:23:59;;;;;;;5.25;2;;;;;;;9.3;100;95841.77;;;;
2020/10/08 06:25:02;;;;;;;5.25;2;;;;;;;9.3;100;95841.77;;;;
2020/10/08 06:26:04;;;;;;;5.25;2;;;;;;;9.3;100;95841.77;;;;
2020/10/08 06:27:05;;;;;;;5.25;2;;;;;;;9.3;100;95841.77;;;;
2020/10/08 06:28:06;;;;;;;5.25;2;;;;;;;9.3;100;95841.77;;;;
2020/10/08 06:29:07;;;;;;;5.25;2;;;;;;;9.3;100;95841.77;;;;